sensor_id;sensor_type;location;lat;lon;timestamp;temperature;humidity
67131;HTU21D;54051;53.464;49.532;2023-04-25T00:00:24;12.95;57.42
67131;HTU21D;54051;53.464;49.532;2023-04-25T00:02:51;12.88;57.71
67131;HTU21D;54051;53.464;49.532;2023-04-25T00:05:17;12.88;57.85
67131;HTU21D;54051;53.464;49.532;2023-04-25T00:07:43;12.89;59.21
67131;HTU21D;54051;53.464;49.532;2023-04-25T00:10:10;12.69;60.59
67131;HTU21D;54051;53.464;49.532;2023-04-25T00:12:37;12.72;59.92
67131;HTU21D;54051;53.464;49.532;2023-04-25T00:15:05;12.88;59.06
67131;HTU21D;54051;53.464;49.532;2023-04-25T00:17:31;12.97;58.43
67131;HTU21D;54051;53.464;49.532;2023-04-25T00:19:57;13.08;57.99
67131;HTU21D;54051;53.464;49.532;2023-04-25T00:22:24;13.14;57.94
67131;HTU21D;54051;53.464;49.532;2023-04-25T00:24:50;13.16;57.58
67131;HTU21D;54051;53.464;49.532;2023-04-25T00:27:19;13.15;57.64
67131;HTU21D;54051;53.464;49.532;2023-04-25T00:29:45;13.19;57.62
67131;HTU21D;54051;53.464;49.532;2023-04-25T00:32:11;13.22;57.10
67131;HTU21D;54051;53.464;49.532;2023-04-25T00:34:37;13.24;57.06
67131;HTU21D;54051;53.464;49.532;2023-04-25T00:37:03;13.29;56.96
67131;HTU21D;54051;53.464;49.532;2023-04-25T00:39:30;13.34;56.62
67131;HTU21D;54051;53.464;49.532;2023-04-25T00:41:57;13.47;56.06
67131;HTU21D;54051;53.464;49.532;2023-04-25T00:44:23;13.58;55.84
67131;HTU21D;54051;53.464;49.532;2023-04-25T00:46:50;13.60;55.78
67131;HTU21D;54051;53.464;49.532;2023-04-25T00:49:16;13.56;56.09
67131;HTU21D;54051;53.464;49.532;2023-04-25T00:51:43;13.49;56.71
67131;HTU21D;54051;53.464;49.532;2023-04-25T00:54:13;13.35;57.54
67131;HTU21D;54051;53.464;49.532;2023-04-25T00:56:40;13.27;58.44
67131;HTU21D;54051;53.464;49.532;2023-04-25T00:59:06;13.11;58.64
67131;HTU21D;54051;53.464;49.532;2023-04-25T01:01:33;13.11;58.70
67131;HTU21D;54051;53.464;49.532;2023-04-25T01:04:00;13.17;58.37
67131;HTU21D;54051;53.464;49.532;2023-04-25T01:06:27;13.21;58.70
67131;HTU21D;54051;53.464;49.532;2023-04-25T01:08:53;13.16;60.37
67131;HTU21D;54051;53.464;49.532;2023-04-25T01:11:19;12.82;61.21
67131;HTU21D;54051;53.464;49.532;2023-04-25T01:13:45;12.64;63.15
67131;HTU21D;54051;53.464;49.532;2023-04-25T01:16:11;12.45;62.22
67131;HTU21D;54051;53.464;49.532;2023-04-25T01:18:41;12.27;62.18
67131;HTU21D;54051;53.464;49.532;2023-04-25T01:21:12;12.28;63.05
67131;HTU21D;54051;53.464;49.532;2023-04-25T01:23:40;12.30;63.47
67131;HTU21D;54051;53.464;49.532;2023-04-25T01:26:09;12.36;62.85
67131;HTU21D;54051;53.464;49.532;2023-04-25T01:28:35;12.41;62.37
67131;HTU21D;54051;53.464;49.532;2023-04-25T01:31:02;12.53;62.18
67131;HTU21D;54051;53.464;49.532;2023-04-25T01:33:29;12.63;62.39
67131;HTU21D;54051;53.464;49.532;2023-04-25T01:35:55;12.77;59.89
67131;HTU21D;54051;53.464;49.532;2023-04-25T01:38:21;12.97;59.09
67131;HTU21D;54051;53.464;49.532;2023-04-25T01:40:49;13.09;61.08
67131;HTU21D;54051;53.464;49.532;2023-04-25T01:43:16;12.91;60.96
67131;HTU21D;54051;53.464;49.532;2023-04-25T01:45:42;12.79;61.47
67131;HTU21D;54051;53.464;49.532;2023-04-25T01:48:11;12.62;62.16
67131;HTU21D;54051;53.464;49.532;2023-04-25T01:50:38;12.48;63.06
67131;HTU21D;54051;53.464;49.532;2023-04-25T01:53:05;12.48;62.78
67131;HTU21D;54051;53.464;49.532;2023-04-25T01:55:31;12.57;62.43
67131;HTU21D;54051;53.464;49.532;2023-04-25T01:57:57;12.64;63.19
67131;HTU21D;54051;53.464;49.532;2023-04-25T02:00:25;12.61;62.06
67131;HTU21D;54051;53.464;49.532;2023-04-25T02:02:51;12.59;61.83
67131;HTU21D;54051;53.464;49.532;2023-04-25T02:05:19;12.46;63.10
67131;HTU21D;54051;53.464;49.532;2023-04-25T02:07:47;12.36;62.63
67131;HTU21D;54051;53.464;49.532;2023-04-25T02:10:13;12.32;62.61
67131;HTU21D;54051;53.464;49.532;2023-04-25T02:12:42;12.31;62.82
67131;HTU21D;54051;53.464;49.532;2023-04-25T02:15:08;12.36;62.28
67131;HTU21D;54051;53.464;49.532;2023-04-25T02:17:35;12.51;61.05
67131;HTU21D;54051;53.464;49.532;2023-04-25T02:20:01;12.64;60.54
67131;HTU21D;54051;53.464;49.532;2023-04-25T02:22:27;12.66;60.08
67131;HTU21D;54051;53.464;49.532;2023-04-25T02:24:56;12.69;60.12
67131;HTU21D;54051;53.464;49.532;2023-04-25T02:27:22;12.78;60.08
67131;HTU21D;54051;53.464;49.532;2023-04-25T02:29:48;12.85;59.80
67131;HTU21D;54051;53.464;49.532;2023-04-25T02:32:21;12.87;59.43
67131;HTU21D;54051;53.464;49.532;2023-04-25T02:34:47;12.97;59.37
67131;HTU21D;54051;53.464;49.532;2023-04-25T02:37:14;13.07;59.28
67131;HTU21D;54051;53.464;49.532;2023-04-25T02:39:40;13.12;59.46
67131;HTU21D;54051;53.464;49.532;2023-04-25T02:42:06;13.14;59.73
67131;HTU21D;54051;53.464;49.532;2023-04-25T02:44:35;13.16;59.93
67131;HTU21D;54051;53.464;49.532;2023-04-25T02:47:01;13.23;60.25
67131;HTU21D;54051;53.464;49.532;2023-04-25T02:49:27;13.30;59.53
67131;HTU21D;54051;53.464;49.532;2023-04-25T02:51:53;13.27;59.82
67131;HTU21D;54051;53.464;49.532;2023-04-25T02:54:19;13.26;59.66
67131;HTU21D;54051;53.464;49.532;2023-04-25T02:56:45;13.27;59.44
67131;HTU21D;54051;53.464;49.532;2023-04-25T02:59:11;13.35;59.81
67131;HTU21D;54051;53.464;49.532;2023-04-25T03:01:37;13.36;59.33
67131;HTU21D;54051;53.464;49.532;2023-04-25T03:04:03;13.36;59.38
67131;HTU21D;54051;53.464;49.532;2023-04-25T03:06:30;13.34;59.80
67131;HTU21D;54051;53.464;49.532;2023-04-25T03:08:56;13.25;60.16
67131;HTU21D;54051;53.464;49.532;2023-04-25T03:11:25;13.15;60.48
67131;HTU21D;54051;53.464;49.532;2023-04-25T03:13:51;13.07;60.82
67131;HTU21D;54051;53.464;49.532;2023-04-25T03:16:17;12.91;60.83
67131;HTU21D;54051;53.464;49.532;2023-04-25T03:18:43;12.89;62.08
67131;HTU21D;54051;53.464;49.532;2023-04-25T03:21:09;12.96;62.29
67131;HTU21D;54051;53.464;49.532;2023-04-25T03:23:35;13.01;62.98
67131;HTU21D;54051;53.464;49.532;2023-04-25T03:26:02;12.97;61.76
67131;HTU21D;54051;53.464;49.532;2023-04-25T03:28:28;12.99;62.63
67131;HTU21D;54051;53.464;49.532;2023-04-25T03:30:54;13.01;63.02
67131;HTU21D;54051;53.464;49.532;2023-04-25T03:33:20;13.11;62.10
67131;HTU21D;54051;53.464;49.532;2023-04-25T03:35:46;13.22;63.60
67131;HTU21D;54051;53.464;49.532;2023-04-25T03:38:12;13.02;63.28
67131;HTU21D;54051;53.464;49.532;2023-04-25T03:40:38;12.88;63.90
67131;HTU21D;54051;53.464;49.532;2023-04-25T03:43:04;13.00;63.56
67131;HTU21D;54051;53.464;49.532;2023-04-25T03:45:30;13.12;63.35
67131;HTU21D;54051;53.464;49.532;2023-04-25T03:47:57;13.20;64.94
67131;HTU21D;54051;53.464;49.532;2023-04-25T03:50:23;13.19;65.04
67131;HTU21D;54051;53.464;49.532;2023-04-25T03:52:49;13.21;63.50
67131;HTU21D;54051;53.464;49.532;2023-04-25T03:55:16;13.24;63.39
67131;HTU21D;54051;53.464;49.532;2023-04-25T03:57:42;13.25;63.77
67131;HTU21D;54051;53.464;49.532;2023-04-25T04:00:08;13.34;63.76
67131;HTU21D;54051;53.464;49.532;2023-04-25T04:02:35;13.38;63.26
67131;HTU21D;54051;53.464;49.532;2023-04-25T04:05:03;13.44;62.55
67131;HTU21D;54051;53.464;49.532;2023-04-25T04:07:29;13.52;63.24
67131;HTU21D;54051;53.464;49.532;2023-04-25T04:09:58;13.45;63.09
67131;HTU21D;54051;53.464;49.532;2023-04-25T04:12:24;13.44;63.27
67131;HTU21D;54051;53.464;49.532;2023-04-25T04:14:50;13.39;63.20
67131;HTU21D;54051;53.464;49.532;2023-04-25T04:17:16;13.34;63.27
67131;HTU21D;54051;53.464;49.532;2023-04-25T04:19:43;13.38;63.03
67131;HTU21D;54051;53.464;49.532;2023-04-25T04:22:09;13.34;63.03
67131;HTU21D;54051;53.464;49.532;2023-04-25T04:24:35;13.25;62.40
67131;HTU21D;54051;53.464;49.532;2023-04-25T04:27:02;13.30;62.75
67131;HTU21D;54051;53.464;49.532;2023-04-25T04:29:29;13.35;63.21
67131;HTU21D;54051;53.464;49.532;2023-04-25T04:31:55;13.44;62.62
67131;HTU21D;54051;53.464;49.532;2023-04-25T04:34:21;13.33;62.34
67131;HTU21D;54051;53.464;49.532;2023-04-25T04:36:47;13.32;62.89
67131;HTU21D;54051;53.464;49.532;2023-04-25T04:39:14;13.38;62.93
67131;HTU21D;54051;53.464;49.532;2023-04-25T04:41:40;13.51;63.02
67131;HTU21D;54051;53.464;49.532;2023-04-25T04:44:06;13.76;62.34
67131;HTU21D;54051;53.464;49.532;2023-04-25T04:46:34;13.86;62.63
67131;HTU21D;54051;53.464;49.532;2023-04-25T04:49:09;13.91;61.97
67131;HTU21D;54051;53.464;49.532;2023-04-25T04:51:35;13.81;61.92
67131;HTU21D;54051;53.464;49.532;2023-04-25T04:54:02;13.82;61.04
67131;HTU21D;54051;53.464;49.532;2023-04-25T04:56:29;13.78;61.03
67131;HTU21D;54051;53.464;49.532;2023-04-25T04:58:57;13.82;60.25
67131;HTU21D;54051;53.464;49.532;2023-04-25T05:01:23;13.91;59.98
67131;HTU21D;54051;53.464;49.532;2023-04-25T05:03:49;14.12;58.79
67131;HTU21D;54051;53.464;49.532;2023-04-25T05:06:17;14.28;57.73
67131;HTU21D;54051;53.464;49.532;2023-04-25T05:08:43;14.40;57.45
67131;HTU21D;54051;53.464;49.532;2023-04-25T05:11:09;14.64;57.14
67131;HTU21D;54051;53.464;49.532;2023-04-25T05:13:35;14.81;57.04
67131;HTU21D;54051;53.464;49.532;2023-04-25T05:16:01;14.84;57.31
67131;HTU21D;54051;53.464;49.532;2023-04-25T05:18:27;14.94;55.93
67131;HTU21D;54051;53.464;49.532;2023-04-25T05:20:53;15.14;56.51
67131;HTU21D;54051;53.464;49.532;2023-04-25T05:23:20;15.28;55.55
67131;HTU21D;54051;53.464;49.532;2023-04-25T05:25:46;15.27;55.66
67131;HTU21D;54051;53.464;49.532;2023-04-25T05:28:12;15.32;55.52
67131;HTU21D;54051;53.464;49.532;2023-04-25T05:30:39;15.37;55.94
67131;HTU21D;54051;53.464;49.532;2023-04-25T05:33:05;15.39;56.16
67131;HTU21D;54051;53.464;49.532;2023-04-25T05:35:32;15.45;55.90
67131;HTU21D;54051;53.464;49.532;2023-04-25T05:37:58;15.60;56.52
67131;HTU21D;54051;53.464;49.532;2023-04-25T05:40:25;15.90;55.78
67131;HTU21D;54051;53.464;49.532;2023-04-25T05:42:51;16.20;56.08
67131;HTU21D;54051;53.464;49.532;2023-04-25T05:45:17;16.48;53.27
67131;HTU21D;54051;53.464;49.532;2023-04-25T05:47:44;16.89;51.64
67131;HTU21D;54051;53.464;49.532;2023-04-25T05:50:10;17.18;50.67
67131;HTU21D;54051;53.464;49.532;2023-04-25T05:52:36;17.00;51.08
67131;HTU21D;54051;53.464;49.532;2023-04-25T05:55:03;16.59;52.16
67131;HTU21D;54051;53.464;49.532;2023-04-25T05:57:29;16.29;53.81
67131;HTU21D;54051;53.464;49.532;2023-04-25T05:59:55;16.03;54.43
67131;HTU21D;54051;53.464;49.532;2023-04-25T06:02:22;16.17;53.75
67131;HTU21D;54051;53.464;49.532;2023-04-25T06:04:51;16.36;51.97
67131;HTU21D;54051;53.464;49.532;2023-04-25T06:07:18;16.39;52.03
67131;HTU21D;54051;53.464;49.532;2023-04-25T06:09:45;16.65;52.03
67131;HTU21D;54051;53.464;49.532;2023-04-25T06:12:12;16.64;52.04
67131;HTU21D;54051;53.464;49.532;2023-04-25T06:14:38;16.60;51.98
67131;HTU21D;54051;53.464;49.532;2023-04-25T06:17:04;16.74;52.11
67131;HTU21D;54051;53.464;49.532;2023-04-25T06:19:35;16.93;51.44
67131;HTU21D;54051;53.464;49.532;2023-04-25T06:22:01;16.80;52.27
67131;HTU21D;54051;53.464;49.532;2023-04-25T06:24:28;16.84;52.59
67131;HTU21D;54051;53.464;49.532;2023-04-25T06:26:54;17.04;51.57
67131;HTU21D;54051;53.464;49.532;2023-04-25T06:29:21;16.92;51.88
67131;HTU21D;54051;53.464;49.532;2023-04-25T06:31:47;16.87;52.42
67131;HTU21D;54051;53.464;49.532;2023-04-25T06:34:13;16.58;52.11
67131;HTU21D;54051;53.464;49.532;2023-04-25T06:36:39;16.39;53.20
67131;HTU21D;54051;53.464;49.532;2023-04-25T06:39:07;16.47;53.11
67131;HTU21D;54051;53.464;49.532;2023-04-25T06:41:34;16.51;53.40
67131;HTU21D;54051;53.464;49.532;2023-04-25T06:44:01;16.64;52.46
67131;HTU21D;54051;53.464;49.532;2023-04-25T06:46:28;16.64;53.18
67131;HTU21D;54051;53.464;49.532;2023-04-25T06:48:54;16.59;53.11
67131;HTU21D;54051;53.464;49.532;2023-04-25T06:51:21;16.65;53.29
67131;HTU21D;54051;53.464;49.532;2023-04-25T06:53:47;16.64;53.98
67131;HTU21D;54051;53.464;49.532;2023-04-25T06:56:13;16.69;54.33
67131;HTU21D;54051;53.464;49.532;2023-04-25T06:58:39;16.67;54.33
67131;HTU21D;54051;53.464;49.532;2023-04-25T07:01:05;16.71;54.20
67131;HTU21D;54051;53.464;49.532;2023-04-25T07:03:32;16.75;54.68
67131;HTU21D;54051;53.464;49.532;2023-04-25T07:05:58;16.73;54.51
67131;HTU21D;54051;53.464;49.532;2023-04-25T07:08:24;16.75;55.01
67131;HTU21D;54051;53.464;49.532;2023-04-25T07:10:51;16.80;54.83
67131;HTU21D;54051;53.464;49.532;2023-04-25T07:13:17;16.81;56.57
67131;HTU21D;54051;53.464;49.532;2023-04-25T07:15:43;16.67;55.49
67131;HTU21D;54051;53.464;49.532;2023-04-25T07:18:10;16.80;54.67
67131;HTU21D;54051;53.464;49.532;2023-04-25T07:20:36;17.01;53.14
67131;HTU21D;54051;53.464;49.532;2023-04-25T07:23:02;17.17;52.91
67131;HTU21D;54051;53.464;49.532;2023-04-25T07:25:29;17.36;52.36
67131;HTU21D;54051;53.464;49.532;2023-04-25T07:27:56;17.55;51.30
67131;HTU21D;54051;53.464;49.532;2023-04-25T07:30:23;17.74;50.59
67131;HTU21D;54051;53.464;49.532;2023-04-25T07:32:50;17.80;50.57
67131;HTU21D;54051;53.464;49.532;2023-04-25T07:35:17;17.89;50.18
67131;HTU21D;54051;53.464;49.532;2023-04-25T07:37:43;17.69;50.03
67131;HTU21D;54051;53.464;49.532;2023-04-25T07:40:09;17.65;50.84
67131;HTU21D;54051;53.464;49.532;2023-04-25T07:42:36;17.62;51.20
67131;HTU21D;54051;53.464;49.532;2023-04-25T07:45:02;17.55;51.25
67131;HTU21D;54051;53.464;49.532;2023-04-25T07:47:29;17.56;51.32
67131;HTU21D;54051;53.464;49.532;2023-04-25T07:49:55;17.65;50.76
67131;HTU21D;54051;53.464;49.532;2023-04-25T07:52:23;17.67;51.16
67131;HTU21D;54051;53.464;49.532;2023-04-25T07:54:50;17.69;50.52
67131;HTU21D;54051;53.464;49.532;2023-04-25T07:57:16;17.74;51.50
67131;HTU21D;54051;53.464;49.532;2023-04-25T07:59:43;17.81;51.14
67131;HTU21D;54051;53.464;49.532;2023-04-25T08:02:09;17.85;51.29
67131;HTU21D;54051;53.464;49.532;2023-04-25T08:04:35;17.87;51.16
67131;HTU21D;54051;53.464;49.532;2023-04-25T08:07:02;17.97;51.09
67131;HTU21D;54051;53.464;49.532;2023-04-25T08:09:28;17.97;50.72
67131;HTU21D;54051;53.464;49.532;2023-04-25T08:11:55;17.93;51.26
67131;HTU21D;54051;53.464;49.532;2023-04-25T08:14:21;17.99;50.54
67131;HTU21D;54051;53.464;49.532;2023-04-25T08:16:47;18.10;51.35
67131;HTU21D;54051;53.464;49.532;2023-04-25T08:19:13;18.23;50.90
67131;HTU21D;54051;53.464;49.532;2023-04-25T08:21:40;18.24;50.54
67131;HTU21D;54051;53.464;49.532;2023-04-25T08:24:06;18.22;51.06
67131;HTU21D;54051;53.464;49.532;2023-04-25T08:26:32;18.24;50.98
67131;HTU21D;54051;53.464;49.532;2023-04-25T08:28:58;18.19;51.06
67131;HTU21D;54051;53.464;49.532;2023-04-25T08:31:25;18.13;51.39
67131;HTU21D;54051;53.464;49.532;2023-04-25T08:33:51;18.25;53.00
67131;HTU21D;54051;53.464;49.532;2023-04-25T08:36:18;18.27;51.76
67131;HTU21D;54051;53.464;49.532;2023-04-25T08:38:44;18.27;52.47
67131;HTU21D;54051;53.464;49.532;2023-04-25T08:41:11;18.33;52.72
67131;HTU21D;54051;53.464;49.532;2023-04-25T08:43:37;18.30;51.55
67131;HTU21D;54051;53.464;49.532;2023-04-25T08:46:07;18.33;52.49
67131;HTU21D;54051;53.464;49.532;2023-04-25T08:48:34;18.43;51.94
67131;HTU21D;54051;53.464;49.532;2023-04-25T08:51:02;18.47;51.63
67131;HTU21D;54051;53.464;49.532;2023-04-25T08:53:31;18.65;51.42
67131;HTU21D;54051;53.464;49.532;2023-04-25T08:55:58;18.65;50.42
67131;HTU21D;54051;53.464;49.532;2023-04-25T08:58:25;18.65;50.49
67131;HTU21D;54051;53.464;49.532;2023-04-25T09:00:51;18.63;50.37
67131;HTU21D;54051;53.464;49.532;2023-04-25T09:03:18;18.62;50.26
67131;HTU21D;54051;53.464;49.532;2023-04-25T09:05:44;18.62;50.36
67131;HTU21D;54051;53.464;49.532;2023-04-25T09:08:10;18.67;50.52
67131;HTU21D;54051;53.464;49.532;2023-04-25T09:10:37;18.62;50.77
67131;HTU21D;54051;53.464;49.532;2023-04-25T09:13:07;18.67;51.14
67131;HTU21D;54051;53.464;49.532;2023-04-25T09:15:55;18.79;50.87
67131;HTU21D;54051;53.464;49.532;2023-04-25T09:18:23;18.76;50.63
67131;HTU21D;54051;53.464;49.532;2023-04-25T09:20:55;18.84;51.09
67131;HTU21D;54051;53.464;49.532;2023-04-25T09:23:22;18.89;51.21
67131;HTU21D;54051;53.464;49.532;2023-04-25T09:25:53;18.82;51.36
67131;HTU21D;54051;53.464;49.532;2023-04-25T09:28:24;18.70;49.57
67131;HTU21D;54051;53.464;49.532;2023-04-25T09:30:56;18.66;51.01
67131;HTU21D;54051;53.464;49.532;2023-04-25T09:33:31;18.54;51.37
67131;HTU21D;54051;53.464;49.532;2023-04-25T09:36:08;18.55;51.09
67131;HTU21D;54051;53.464;49.532;2023-04-25T09:38:42;18.46;50.04
67131;HTU21D;54051;53.464;49.532;2023-04-25T09:41:09;18.46;49.50
67131;HTU21D;54051;53.464;49.532;2023-04-25T09:43:36;18.40;50.76
67131;HTU21D;54051;53.464;49.532;2023-04-25T09:46:04;18.33;50.31
67131;HTU21D;54051;53.464;49.532;2023-04-25T09:48:33;18.28;50.40
67131;HTU21D;54051;53.464;49.532;2023-04-25T09:51:12;18.17;51.47
67131;HTU21D;54051;53.464;49.532;2023-04-25T09:53:46;18.12;50.39
67131;HTU21D;54051;53.464;49.532;2023-04-25T09:56:13;18.04;50.69
67131;HTU21D;54051;53.464;49.532;2023-04-25T09:58:40;17.91;52.50
67131;HTU21D;54051;53.464;49.532;2023-04-25T10:01:08;17.82;51.36
67131;HTU21D;54051;53.464;49.532;2023-04-25T10:03:37;17.75;51.07
67131;HTU21D;54051;53.464;49.532;2023-04-25T10:06:14;17.73;53.47
67131;HTU21D;54051;53.464;49.532;2023-04-25T10:08:43;17.75;52.61
67131;HTU21D;54051;53.464;49.532;2023-04-25T10:11:09;17.73;52.10
67131;HTU21D;54051;53.464;49.532;2023-04-25T10:13:36;17.63;52.50
67131;HTU21D;54051;53.464;49.532;2023-04-25T10:16:04;17.48;53.75
67131;HTU21D;54051;53.464;49.532;2023-04-25T10:18:32;17.40;55.52
67131;HTU21D;54051;53.464;49.532;2023-04-25T10:21:01;17.28;55.61
67131;HTU21D;54051;53.464;49.532;2023-04-25T10:23:29;17.17;56.16
67131;HTU21D;54051;53.464;49.532;2023-04-25T10:25:56;17.18;56.34
67131;HTU21D;54051;53.464;49.532;2023-04-25T10:28:22;17.21;55.85
67131;HTU21D;54051;53.464;49.532;2023-04-25T10:31:04;17.22;57.68
67131;HTU21D;54051;53.464;49.532;2023-04-25T10:33:38;17.08;55.80
67131;HTU21D;54051;53.464;49.532;2023-04-25T10:36:13;17.03;58.32
67131;HTU21D;54051;53.464;49.532;2023-04-25T10:38:42;17.01;57.78
67131;HTU21D;54051;53.464;49.532;2023-04-25T10:41:10;16.98;56.91
67131;HTU21D;54051;53.464;49.532;2023-04-25T10:43:39;17.01;57.96
67131;HTU21D;54051;53.464;49.532;2023-04-25T10:46:25;17.00;58.02
67131;HTU21D;54051;53.464;49.532;2023-04-25T10:48:59;17.05;58.20
67131;HTU21D;54051;53.464;49.532;2023-04-25T10:51:31;17.04;58.32
67131;HTU21D;54051;53.464;49.532;2023-04-25T10:54:03;16.91;58.22
67131;HTU21D;54051;53.464;49.532;2023-04-25T10:59:18;16.82;59.62
67131;HTU21D;54051;53.464;49.532;2023-04-25T11:01:52;16.87;60.18
67131;HTU21D;54051;53.464;49.532;2023-04-25T11:04:25;16.87;59.64
67131;HTU21D;54051;53.464;49.532;2023-04-25T11:09:45;16.79;60.96
67131;HTU21D;54051;53.464;49.532;2023-04-25T11:12:11;16.74;60.69
67131;HTU21D;54051;53.464;49.532;2023-04-25T11:14:39;16.79;63.04
67131;HTU21D;54051;53.464;49.532;2023-04-25T11:17:05;16.82;61.49
67131;HTU21D;54051;53.464;49.532;2023-04-25T11:19:32;16.91;61.35
67131;HTU21D;54051;53.464;49.532;2023-04-25T11:21:59;17.02;60.71
67131;HTU21D;54051;53.464;49.532;2023-04-25T11:24:34;17.14;59.32
67131;HTU21D;54051;53.464;49.532;2023-04-25T11:27:04;17.25;59.77
67131;HTU21D;54051;53.464;49.532;2023-04-25T11:29:33;17.32;59.96
67131;HTU21D;54051;53.464;49.532;2023-04-25T11:32:00;17.30;61.73
67131;HTU21D;54051;53.464;49.532;2023-04-25T11:34:28;17.26;61.36
67131;HTU21D;54051;53.464;49.532;2023-04-25T11:36:57;17.25;61.93
67131;HTU21D;54051;53.464;49.532;2023-04-25T11:39:23;17.16;61.35
67131;HTU21D;54051;53.464;49.532;2023-04-25T11:41:49;17.10;60.50
67131;HTU21D;54051;53.464;49.532;2023-04-25T11:44:17;17.02;60.84
67131;HTU21D;54051;53.464;49.532;2023-04-25T11:46:44;16.88;61.04
67131;HTU21D;54051;53.464;49.532;2023-04-25T11:49:10;16.89;61.96
67131;HTU21D;54051;53.464;49.532;2023-04-25T11:51:47;16.90;61.99
67131;HTU21D;54051;53.464;49.532;2023-04-25T11:54:13;16.93;62.56
67131;HTU21D;54051;53.464;49.532;2023-04-25T11:56:44;16.94;62.31
67131;HTU21D;54051;53.464;49.532;2023-04-25T11:59:12;16.91;62.72
67131;HTU21D;54051;53.464;49.532;2023-04-25T12:01:40;16.90;63.66
67131;HTU21D;54051;53.464;49.532;2023-04-25T12:06:45;16.95;62.94
67131;HTU21D;54051;53.464;49.532;2023-04-25T12:09:27;16.84;64.20
67131;HTU21D;54051;53.464;49.532;2023-04-25T12:11:56;16.75;64.58
67131;HTU21D;54051;53.464;49.532;2023-04-25T12:16:56;16.56;64.03
67131;HTU21D;54051;53.464;49.532;2023-04-25T12:19:27;16.50;65.42
67131;HTU21D;54051;53.464;49.532;2023-04-25T12:21:58;16.42;65.91
67131;HTU21D;54051;53.464;49.532;2023-04-25T12:24:26;16.42;65.84
67131;HTU21D;54051;53.464;49.532;2023-04-25T12:26:58;16.39;65.66
67131;HTU21D;54051;53.464;49.532;2023-04-25T12:29:27;16.34;66.20
67131;HTU21D;54051;53.464;49.532;2023-04-25T12:31:54;16.35;66.26
67131;HTU21D;54051;53.464;49.532;2023-04-25T12:34:21;16.31;66.72
67131;HTU21D;54051;53.464;49.532;2023-04-25T12:36:49;16.39;67.08
67131;HTU21D;54051;53.464;49.532;2023-04-25T12:39:20;16.41;67.75
67131;HTU21D;54051;53.464;49.532;2023-04-25T12:41:51;16.45;68.39
67131;HTU21D;54051;53.464;49.532;2023-04-25T12:44:21;16.41;67.65
67131;HTU21D;54051;53.464;49.532;2023-04-25T12:46:48;16.32;68.46
67131;HTU21D;54051;53.464;49.532;2023-04-25T12:49:15;16.21;68.52
67131;HTU21D;54051;53.464;49.532;2023-04-25T12:51:41;16.20;69.68
67131;HTU21D;54051;53.464;49.532;2023-04-25T12:54:08;16.26;71.00
67131;HTU21D;54051;53.464;49.532;2023-04-25T12:56:34;16.25;72.92
67131;HTU21D;54051;53.464;49.532;2023-04-25T12:59:02;16.13;70.75
67131;HTU21D;54051;53.464;49.532;2023-04-25T13:01:31;15.99;71.98
67131;HTU21D;54051;53.464;49.532;2023-04-25T13:03:58;15.93;74.05
67131;HTU21D;54051;53.464;49.532;2023-04-25T13:06:24;15.98;75.09
67131;HTU21D;54051;53.464;49.532;2023-04-25T13:08:52;15.86;76.44
67131;HTU21D;54051;53.464;49.532;2023-04-25T13:11:18;15.81;77.60
67131;HTU21D;54051;53.464;49.532;2023-04-25T13:13:44;15.87;77.11
67131;HTU21D;54051;53.464;49.532;2023-04-25T13:16:10;15.89;76.97
67131;HTU21D;54051;53.464;49.532;2023-04-25T13:18:40;15.80;78.21
67131;HTU21D;54051;53.464;49.532;2023-04-25T13:21:06;15.82;79.08
67131;HTU21D;54051;53.464;49.532;2023-04-25T13:23:32;15.77;78.72
67131;HTU21D;54051;53.464;49.532;2023-04-25T13:25:58;15.68;79.82
67131;HTU21D;54051;53.464;49.532;2023-04-25T13:28:27;15.53;77.50
67131;HTU21D;54051;53.464;49.532;2023-04-25T13:30:53;15.24;75.84
67131;HTU21D;54051;53.464;49.532;2023-04-25T13:33:20;15.08;76.70
67131;HTU21D;54051;53.464;49.532;2023-04-25T13:35:48;15.01;76.87
67131;HTU21D;54051;53.464;49.532;2023-04-25T13:38:24;14.95;77.62
67131;HTU21D;54051;53.464;49.532;2023-04-25T13:40:50;15.00;77.69
67131;HTU21D;54051;53.464;49.532;2023-04-25T13:43:19;14.99;77.63
67131;HTU21D;54051;53.464;49.532;2023-04-25T13:45:46;14.96;78.15
67131;HTU21D;54051;53.464;49.532;2023-04-25T13:48:12;14.96;79.51
67131;HTU21D;54051;53.464;49.532;2023-04-25T13:50:39;14.98;79.90
67131;HTU21D;54051;53.464;49.532;2023-04-25T13:53:05;15.00;79.60
67131;HTU21D;54051;53.464;49.532;2023-04-25T13:55:31;14.81;80.94
67131;HTU21D;54051;53.464;49.532;2023-04-25T13:57:57;14.72;81.93
67131;HTU21D;54051;53.464;49.532;2023-04-25T14:00:23;14.63;81.91
67131;HTU21D;54051;53.464;49.532;2023-04-25T14:02:49;14.57;81.43
67131;HTU21D;54051;53.464;49.532;2023-04-25T14:05:16;14.43;80.97
67131;HTU21D;54051;53.464;49.532;2023-04-25T14:07:42;14.37;82.22
67131;HTU21D;54051;53.464;49.532;2023-04-25T14:10:08;14.36;82.81
67131;HTU21D;54051;53.464;49.532;2023-04-25T14:12:34;14.37;83.29
67131;HTU21D;54051;53.464;49.532;2023-04-25T14:15:00;14.48;83.09
67131;HTU21D;54051;53.464;49.532;2023-04-25T14:17:26;14.57;82.32
67131;HTU21D;54051;53.464;49.532;2023-04-25T14:19:52;14.63;82.30
67131;HTU21D;54051;53.464;49.532;2023-04-25T14:22:18;14.60;81.70
67131;HTU21D;54051;53.464;49.532;2023-04-25T14:24:45;14.64;81.59
67131;HTU21D;54051;53.464;49.532;2023-04-25T14:27:11;14.69;81.62
67131;HTU21D;54051;53.464;49.532;2023-04-25T14:29:37;14.60;82.32
67131;HTU21D;54051;53.464;49.532;2023-04-25T14:32:03;14.50;82.75
67131;HTU21D;54051;53.464;49.532;2023-04-25T14:34:30;14.51;83.33
67131;HTU21D;54051;53.464;49.532;2023-04-25T14:36:56;14.55;82.92
67131;HTU21D;54051;53.464;49.532;2023-04-25T14:39:23;14.52;82.45
67131;HTU21D;54051;53.464;49.532;2023-04-25T14:41:49;14.44;82.11
67131;HTU21D;54051;53.464;49.532;2023-04-25T14:44:15;14.40;82.50
67131;HTU21D;54051;53.464;49.532;2023-04-25T14:46:41;14.39;82.29
67131;HTU21D;54051;53.464;49.532;2023-04-25T14:49:07;14.34;82.49
67131;HTU21D;54051;53.464;49.532;2023-04-25T14:51:34;14.28;82.45
67131;HTU21D;54051;53.464;49.532;2023-04-25T14:54:00;14.17;82.42
67131;HTU21D;54051;53.464;49.532;2023-04-25T14:56:26;14.12;83.22
67131;HTU21D;54051;53.464;49.532;2023-04-25T14:58:53;14.10;82.63
67131;HTU21D;54051;53.464;49.532;2023-04-25T15:01:19;14.07;82.59
67131;HTU21D;54051;53.464;49.532;2023-04-25T15:03:46;14.00;83.10
67131;HTU21D;54051;53.464;49.532;2023-04-25T15:06:12;14.07;82.90
67131;HTU21D;54051;53.464;49.532;2023-04-25T15:08:38;13.96;83.30
67131;HTU21D;54051;53.464;49.532;2023-04-25T15:11:05;14.04;83.79
67131;HTU21D;54051;53.464;49.532;2023-04-25T15:13:31;14.06;83.84